sensor_id;sensor_type;location;lat;lon;timestamp;temperature;humidity
19522;DHT22;9905;52.126;5.596;2023-04-06T00:00:14;3.70;99.90
19522;DHT22;9905;52.126;5.596;2023-04-06T00:02:43;3.70;99.90
19522;DHT22;9905;52.126;5.596;2023-04-06T00:05:10;3.70;99.90
19522;DHT22;9905;52.126;5.596;2023-04-06T00:07:36;3.60;99.90
19522;DHT22;9905;52.126;5.596;2023-04-06T00:10:04;3.60;99.90
19522;DHT22;9905;52.126;5.596;2023-04-06T00:12:31;3.60;99.90
19522;DHT22;9905;52.126;5.596;2023-04-06T00:14:57;3.50;99.90
19522;DHT22;9905;52.126;5.596;2023-04-06T00:17:24;3.50;99.90
19522;DHT22;9905;52.126;5.596;2023-04-06T00:19:52;3.40;99.90
19522;DHT22;9905;52.126;5.596;2023-04-06T00:22:19;3.40;99.90
19522;DHT22;9905;52.126;5.596;2023-04-06T00:24:46;3.30;99.90
19522;DHT22;9905;52.126;5.596;2023-04-06T00:27:12;3.30;99.90
19522;DHT22;9905;52.126;5.596;2023-04-06T00:29:40;3.30;99.90
19522;DHT22;9905;52.126;5.596;2023-04-06T00:32:07;3.30;99.90
19522;DHT22;9905;52.126;5.596;2023-04-06T00:34:33;3.20;99.90
19522;DHT22;9905;52.126;5.596;2023-04-06T00:37:02;3.20;99.90
19522;DHT22;9905;52.126;5.596;2023-04-06T00:39:28;3.20;99.90
19522;DHT22;9905;52.126;5.596;2023-04-06T00:41:55;3.20;99.90
19522;DHT22;9905;52.126;5.596;2023-04-06T00:44:24;3.10;99.90
19522;DHT22;9905;52.126;5.596;2023-04-06T00:46:51;3.10;99.90
19522;DHT22;9905;52.126;5.596;2023-04-06T00:49:18;3.10;99.90
19522;DHT22;9905;52.126;5.596;2023-04-06T00:51:44;3.10;99.90
19522;DHT22;9905;52.126;5.596;2023-04-06T00:54:13;3.10;99.90
19522;DHT22;9905;52.126;5.596;2023-04-06T00:56:41;3.10;99.90
19522;DHT22;9905;52.126;5.596;2023-04-06T00:59:08;3.00;99.90
19522;DHT22;9905;52.126;5.596;2023-04-06T01:01:35;3.00;99.90
19522;DHT22;9905;52.126;5.596;2023-04-06T01:04:01;3.00;99.90
19522;DHT22;9905;52.126;5.596;2023-04-06T01:06:29;2.90;99.90
19522;DHT22;9905;52.126;5.596;2023-04-06T01:08:55;2.90;99.90
19522;DHT22;9905;52.126;5.596;2023-04-06T01:11:23;2.90;99.90
19522;DHT22;9905;52.126;5.596;2023-04-06T01:13:51;2.80;99.90
19522;DHT22;9905;52.126;5.596;2023-04-06T01:16:18;2.80;99.90
19522;DHT22;9905;52.126;5.596;2023-04-06T01:18:44;2.80;99.90
19522;DHT22;9905;52.126;5.596;2023-04-06T01:21:11;2.80;99.90
19522;DHT22;9905;52.126;5.596;2023-04-06T01:23:43;2.80;99.90
19522;DHT22;9905;52.126;5.596;2023-04-06T01:26:10;2.80;99.90
19522;DHT22;9905;52.126;5.596;2023-04-06T01:28:37;2.70;99.90
19522;DHT22;9905;52.126;5.596;2023-04-06T01:31:05;2.70;99.90
19522;DHT22;9905;52.126;5.596;2023-04-06T01:33:32;2.70;99.90
19522;DHT22;9905;52.126;5.596;2023-04-06T01:35:59;2.70;99.90
19522;DHT22;9905;52.126;5.596;2023-04-06T01:38:26;2.80;99.90
19522;DHT22;9905;52.126;5.596;2023-04-06T01:40:54;2.70;99.90
19522;DHT22;9905;52.126;5.596;2023-04-06T01:43:21;2.70;99.90
19522;DHT22;9905;52.126;5.596;2023-04-06T01:45:48;2.70;99.90
19522;DHT22;9905;52.126;5.596;2023-04-06T01:48:15;2.70;99.90
19522;DHT22;9905;52.126;5.596;2023-04-06T01:50:42;2.70;99.90
19522;DHT22;9905;52.126;5.596;2023-04-06T01:53:08;2.70;99.90
19522;DHT22;9905;52.126;5.596;2023-04-06T01:55:35;2.70;99.90
19522;DHT22;9905;52.126;5.596;2023-04-06T01:58:03;2.70;99.90
19522;DHT22;9905;52.126;5.596;2023-04-06T02:00:30;2.70;99.90
19522;DHT22;9905;52.126;5.596;2023-04-06T02:02:57;2.60;99.90
19522;DHT22;9905;52.126;5.596;2023-04-06T02:05:24;2.70;99.90
19522;DHT22;9905;52.126;5.596;2023-04-06T02:07:51;2.70;99.90
19522;DHT22;9905;52.126;5.596;2023-04-06T02:10:18;2.70;99.90
19522;DHT22;9905;52.126;5.596;2023-04-06T02:12:44;2.70;99.90
19522;DHT22;9905;52.126;5.596;2023-04-06T02:15:13;2.70;99.90
19522;DHT22;9905;52.126;5.596;2023-04-06T02:17:40;2.70;99.90
19522;DHT22;9905;52.126;5.596;2023-04-06T02:20:07;2.70;99.90
19522;DHT22;9905;52.126;5.596;2023-04-06T02:22:34;2.70;99.90
19522;DHT22;9905;52.126;5.596;2023-04-06T02:25:01;2.80;99.90
19522;DHT22;9905;52.126;5.596;2023-04-06T02:27:28;2.70;99.90
19522;DHT22;9905;52.126;5.596;2023-04-06T02:29:55;2.80;99.90
19522;DHT22;9905;52.126;5.596;2023-04-06T02:32:23;2.80;99.90
19522;DHT22;9905;52.126;5.596;2023-04-06T02:34:50;2.90;99.90
19522;DHT22;9905;52.126;5.596;2023-04-06T02:37:16;2.80;99.90
19522;DHT22;9905;52.126;5.596;2023-04-06T02:39:43;2.90;99.90
19522;DHT22;9905;52.126;5.596;2023-04-06T02:42:10;2.90;99.90
19522;DHT22;9905;52.126;5.596;2023-04-06T02:44:36;2.90;99.90
19522;DHT22;9905;52.126;5.596;2023-04-06T02:47:03;3.00;99.90
19522;DHT22;9905;52.126;5.596;2023-04-06T02:49:31;3.00;99.90
19522;DHT22;9905;52.126;5.596;2023-04-06T02:51:58;3.00;99.90
19522;DHT22;9905;52.126;5.596;2023-04-06T02:54:25;3.00;99.90
19522;DHT22;9905;52.126;5.596;2023-04-06T02:56:51;3.00;99.90
19522;DHT22;9905;52.126;5.596;2023-04-06T02:59:18;3.10;99.90
19522;DHT22;9905;52.126;5.596;2023-04-06T03:01:45;3.10;99.90
19522;DHT22;9905;52.126;5.596;2023-04-06T03:04:12;3.10;99.90
19522;DHT22;9905;52.126;5.596;2023-04-06T03:06:40;3.20;99.90
19522;DHT22;9905;52.126;5.596;2023-04-06T03:09:06;3.20;99.90
19522;DHT22;9905;52.126;5.596;2023-04-06T03:11:33;3.30;99.90
19522;DHT22;9905;52.126;5.596;2023-04-06T03:14:00;3.30;99.90
19522;DHT22;9905;52.126;5.596;2023-04-06T03:16:27;3.30;99.90
19522;DHT22;9905;52.126;5.596;2023-04-06T03:18:54;3.30;99.90
19522;DHT22;9905;52.126;5.596;2023-04-06T03:21:21;3.30;99.90
19522;DHT22;9905;52.126;5.596;2023-04-06T03:23:49;3.40;99.90
19522;DHT22;9905;52.126;5.596;2023-04-06T03:26:16;3.40;99.90
19522;DHT22;9905;52.126;5.596;2023-04-06T03:28:43;3.40;99.90
19522;DHT22;9905;52.126;5.596;2023-04-06T03:31:10;3.50;99.90
19522;DHT22;9905;52.126;5.596;2023-04-06T03:33:36;3.50;99.90
19522;DHT22;9905;52.126;5.596;2023-04-06T03:36:04;3.60;99.90
19522;DHT22;9905;52.126;5.596;2023-04-06T03:38:31;3.70;99.90
19522;DHT22;9905;52.126;5.596;2023-04-06T03:40:59;3.60;99.90
19522;DHT22;9905;52.126;5.596;2023-04-06T03:43:26;3.60;99.90
19522;DHT22;9905;52.126;5.596;2023-04-06T03:45:52;3.70;99.90
19522;DHT22;9905;52.126;5.596;2023-04-06T03:48:19;3.70;99.90
19522;DHT22;9905;52.126;5.596;2023-04-06T03:50:46;3.70;99.90
19522;DHT22;9905;52.126;5.596;2023-04-06T03:53:13;3.70;99.90
19522;DHT22;9905;52.126;5.596;2023-04-06T03:55:39;3.70;99.90
19522;DHT22;9905;52.126;5.596;2023-04-06T03:58:08;3.70;99.90
19522;DHT22;9905;52.126;5.596;2023-04-06T04:00:34;3.70;99.90
19522;DHT22;9905;52.126;5.596;2023-04-06T04:03:01;3.70;99.90
19522;DHT22;9905;52.126;5.596;2023-04-06T04:05:28;3.70;99.90
19522;DHT22;9905;52.126;5.596;2023-04-06T04:07:55;3.70;99.90
19522;DHT22;9905;52.126;5.596;2023-04-06T04:10:21;3.80;99.90
19522;DHT22;9905;52.126;5.596;2023-04-06T04:12:48;3.80;99.90
19522;DHT22;9905;52.126;5.596;2023-04-06T04:15:16;3.70;99.90
19522;DHT22;9905;52.126;5.596;2023-04-06T04:17:43;3.70;99.90
19522;DHT22;9905;52.126;5.596;2023-04-06T04:20:12;3.80;99.90
19522;DHT22;9905;52.126;5.596;2023-04-06T04:22:40;3.80;99.90
19522;DHT22;9905;52.126;5.596;2023-04-06T04:25:07;3.80;99.90
19522;DHT22;9905;52.126;5.596;2023-04-06T04:27:34;3.80;99.90
19522;DHT22;9905;52.126;5.596;2023-04-06T04:30:01;3.80;99.90
19522;DHT22;9905;52.126;5.596;2023-04-06T04:32:29;3.80;99.90
19522;DHT22;9905;52.126;5.596;2023-04-06T04:34:55;3.80;99.90
19522;DHT22;9905;52.126;5.596;2023-04-06T04:37:22;3.80;99.90
19522;DHT22;9905;52.126;5.596;2023-04-06T04:39:49;3.80;99.90
19522;DHT22;9905;52.126;5.596;2023-04-06T04:42:16;3.80;99.90
19522;DHT22;9905;52.126;5.596;2023-04-06T04:44:42;3.80;99.90
19522;DHT22;9905;52.126;5.596;2023-04-06T04:47:09;3.90;99.90
19522;DHT22;9905;52.126;5.596;2023-04-06T04:49:37;3.90;99.90
19522;DHT22;9905;52.126;5.596;2023-04-06T04:52:04;3.90;99.90
19522;DHT22;9905;52.126;5.596;2023-04-06T04:54:31;3.90;99.90
19522;DHT22;9905;52.126;5.596;2023-04-06T04:56:57;3.90;99.90
19522;DHT22;9905;52.126;5.596;2023-04-06T04:59:24;3.90;99.90
19522;DHT22;9905;52.126;5.596;2023-04-06T05:01:51;3.90;99.90
19522;DHT22;9905;52.126;5.596;2023-04-06T05:04:18;3.90;99.90
19522;DHT22;9905;52.126;5.596;2023-04-06T05:06:47;3.90;99.90
19522;DHT22;9905;52.126;5.596;2023-04-06T05:09:14;3.90;99.90
19522;DHT22;9905;52.126;5.596;2023-04-06T05:11:40;3.80;99.90
19522;DHT22;9905;52.126;5.596;2023-04-06T05:14:07;3.80;99.90
19522;DHT22;9905;52.126;5.596;2023-04-06T05:16:34;3.80;99.90
19522;DHT22;9905;52.126;5.596;2023-04-06T05:19:01;3.80;99.90
19522;DHT22;9905;52.126;5.596;2023-04-06T05:21:27;3.80;99.90
19522;DHT22;9905;52.126;5.596;2023-04-06T05:23:56;3.90;99.90
19522;DHT22;9905;52.126;5.596;2023-04-06T05:26:23;3.80;99.90
19522;DHT22;9905;52.126;5.596;2023-04-06T05:28:51;3.80;99.90
19522;DHT22;9905;52.126;5.596;2023-04-06T05:31:17;3.80;99.90
19522;DHT22;9905;52.126;5.596;2023-04-06T05:33:44;3.90;99.90
19522;DHT22;9905;52.126;5.596;2023-04-06T05:36:11;3.90;99.90
19522;DHT22;9905;52.126;5.596;2023-04-06T05:38:37;3.90;99.90
19522;DHT22;9905;52.126;5.596;2023-04-06T05:41:05;3.90;99.90
19522;DHT22;9905;52.126;5.596;2023-04-06T05:43:32;4.00;99.90
19522;DHT22;9905;52.126;5.596;2023-04-06T05:45:59;4.00;99.90
19522;DHT22;9905;52.126;5.596;2023-04-06T05:48:26;4.00;99.90
19522;DHT22;9905;52.126;5.596;2023-04-06T05:50:52;4.00;99.90
19522;DHT22;9905;52.126;5.596;2023-04-06T05:53:19;4.10;99.90
19522;DHT22;9905;52.126;5.596;2023-04-06T05:55:47;4.20;99.90
19522;DHT22;9905;52.126;5.596;2023-04-06T05:58:15;4.20;99.90
19522;DHT22;9905;52.126;5.596;2023-04-06T06:00:42;4.20;99.90
19522;DHT22;9905;52.126;5.596;2023-04-06T06:03:11;4.30;99.90
19522;DHT22;9905;52.126;5.596;2023-04-06T06:05:38;4.40;99.90
19522;DHT22;9905;52.126;5.596;2023-04-06T06:08:05;4.50;99.90
19522;DHT22;9905;52.126;5.596;2023-04-06T06:10:32;4.70;99.90
19522;DHT22;9905;52.126;5.596;2023-04-06T06:12:59;4.90;99.90
19522;DHT22;9905;52.126;5.596;2023-04-06T06:15:27;5.10;99.90
19522;DHT22;9905;52.126;5.596;2023-04-06T06:17:53;5.20;99.90
19522;DHT22;9905;52.126;5.596;2023-04-06T06:20:20;5.30;99.90
19522;DHT22;9905;52.126;5.596;2023-04-06T06:22:47;5.40;99.90
19522;DHT22;9905;52.126;5.596;2023-04-06T06:25:14;5.50;99.90
19522;DHT22;9905;52.126;5.596;2023-04-06T06:27:41;5.60;99.90
19522;DHT22;9905;52.126;5.596;2023-04-06T06:30:08;5.70;99.90
19522;DHT22;9905;52.126;5.596;2023-04-06T06:32:37;5.80;99.90
19522;DHT22;9905;52.126;5.596;2023-04-06T06:35:04;5.80;99.90
19522;DHT22;9905;52.126;5.596;2023-04-06T06:37:31;5.90;99.90
19522;DHT22;9905;52.126;5.596;2023-04-06T06:39:57;6.00;99.90
19522;DHT22;9905;52.126;5.596;2023-04-06T06:42:24;6.10;99.90
19522;DHT22;9905;52.126;5.596;2023-04-06T06:44:51;6.10;99.90
19522;DHT22;9905;52.126;5.596;2023-04-06T06:47:18;6.20;99.90
19522;DHT22;9905;52.126;5.596;2023-04-06T06:49:46;6.20;99.90
19522;DHT22;9905;52.126;5.596;2023-04-06T06:52:13;6.30;99.90
19522;DHT22;9905;52.126;5.596;2023-04-06T06:54:40;6.30;99.90
19522;DHT22;9905;52.126;5.596;2023-04-06T06:57:06;6.30;99.90
19522;DHT22;9905;52.126;5.596;2023-04-06T06:59:33;6.40;99.90
19522;DHT22;9905;52.126;5.596;2023-04-06T07:02:00;6.50;99.90
19522;DHT22;9905;52.126;5.596;2023-04-06T07:04:27;6.50;99.90
19522;DHT22;9905;52.126;5.596;2023-04-06T07:06:55;6.60;99.90
19522;DHT22;9905;52.126;5.596;2023-04-06T07:09:21;6.70;99.90
19522;DHT22;9905;52.126;5.596;2023-04-06T07:11:48;6.80;99.90
19522;DHT22;9905;52.126;5.596;2023-04-06T07:14:15;6.90;99.90
19522;DHT22;9905;52.126;5.596;2023-04-06T07:16:42;7.00;99.90
19522;DHT22;9905;52.126;5.596;2023-04-06T07:19:10;7.00;99.90
19522;DHT22;9905;52.126;5.596;2023-04-06T07:21:37;7.20;99.90
19522;DHT22;9905;52.126;5.596;2023-04-06T07:24:05;7.30;99.90
19522;DHT22;9905;52.126;5.596;2023-04-06T07:26:32;7.30;99.90
19522;DHT22;9905;52.126;5.596;2023-04-06T07:28:59;7.40;99.90
19522;DHT22;9905;52.126;5.596;2023-04-06T07:31:26;7.40;99.90
19522;DHT22;9905;52.126;5.596;2023-04-06T07:33:52;7.40;99.90
19522;DHT22;9905;52.126;5.596;2023-04-06T07:36:20;7.40;99.90
19522;DHT22;9905;52.126;5.596;2023-04-06T07:38:47;7.40;99.90
19522;DHT22;9905;52.126;5.596;2023-04-06T07:41:15;7.50;99.90
19522;DHT22;9905;52.126;5.596;2023-04-06T07:43:42;7.40;99.90
19522;DHT22;9905;52.126;5.596;2023-04-06T07:46:09;7.40;99.90
19522;DHT22;9905;52.126;5.596;2023-04-06T07:48:36;7.50;99.90
19522;DHT22;9905;52.126;5.596;2023-04-06T07:51:04;7.50;99.90
19522;DHT22;9905;52.126;5.596;2023-04-06T07:53:31;7.50;99.90
19522;DHT22;9905;52.126;5.596;2023-04-06T07:55:58;7.50;99.90
19522;DHT22;9905;52.126;5.596;2023-04-06T07:58:27;7.50;99.90
19522;DHT22;9905;52.126;5.596;2023-04-06T08:00:53;7.60;99.90
19522;DHT22;9905;52.126;5.596;2023-04-06T08:03:21;7.60;99.90
19522;DHT22;9905;52.126;5.596;2023-04-06T08:05:51;7.50;99.90
19522;DHT22;9905;52.126;5.596;2023-04-06T08:08:18;7.60;99.90
19522;DHT22;9905;52.126;5.596;2023-04-06T08:10:45;7.70;99.90
19522;DHT22;9905;52.126;5.596;2023-04-06T08:13:11;7.70;99.90
19522;DHT22;9905;52.126;5.596;2023-04-06T08:15:39;7.80;99.90
19522;DHT22;9905;52.126;5.596;2023-04-06T08:18:06;7.80;99.90
19522;DHT22;9905;52.126;5.596;2023-04-06T08:20:34;7.90;99.90
19522;DHT22;9905;52.126;5.596;2023-04-06T08:23:00;7.80;99.90
19522;DHT22;9905;52.126;5.596;2023-04-06T08:25:27;7.90;99.90
19522;DHT22;9905;52.126;5.596;2023-04-06T08:27:54;8.00;99.90
19522;DHT22;9905;52.126;5.596;2023-04-06T08:30:21;8.10;99.90
19522;DHT22;9905;52.126;5.596;2023-04-06T08:32:49;8.10;99.90
19522;DHT22;9905;52.126;5.596;2023-04-06T08:35:16;8.10;99.90
19522;DHT22;9905;52.126;5.596;2023-04-06T08:37:42;8.20;99.90
19522;DHT22;9905;52.126;5.596;2023-04-06T08:40:10;8.20;99.90
19522;DHT22;9905;52.126;5.596;2023-04-06T08:42:40;8.20;99.90
19522;DHT22;9905;52.126;5.596;2023-04-06T08:45:10;8.30;99.90
19522;DHT22;9905;52.126;5.596;2023-04-06T08:47:38;8.30;99.90
19522;DHT22;9905;52.126;5.596;2023-04-06T08:50:07;8.40;99.90
19522;DHT22;9905;52.126;5.596;2023-04-06T08:52:37;8.40;99.90
19522;DHT22;9905;52.126;5.596;2023-04-06T08:55:05;8.40;99.90
19522;DHT22;9905;52.126;5.596;2023-04-06T08:57:32;8.50;99.90
19522;DHT22;9905;52.126;5.596;2023-04-06T09:00:00;8.50;99.90
19522;DHT22;9905;52.126;5.596;2023-04-06T09:02:27;8.50;99.90
19522;DHT22;9905;52.126;5.596;2023-04-06T09:04:54;8.50;99.90
19522;DHT22;9905;52.126;5.596;2023-04-06T09:07:22;8.60;99.90
19522;DHT22;9905;52.126;5.596;2023-04-06T09:09:49;8.70;99.90
19522;DHT22;9905;52.126;5.596;2023-04-06T09:12:24;8.70;99.90
19522;DHT22;9905;52.126;5.596;2023-04-06T09:14:51;8.80;99.90
19522;DHT22;9905;52.126;5.596;2023-04-06T09:17:22;8.80;99.90
19522;DHT22;9905;52.126;5.596;2023-04-06T09:19:49;8.80;99.90
19522;DHT22;9905;52.126;5.596;2023-04-06T09:22:16;8.80;99.90
19522;DHT22;9905;52.126;5.596;2023-04-06T09:24:45;8.90;99.90
19522;DHT22;9905;52.126;5.596;2023-04-06T09:27:13;9.00;99.90
19522;DHT22;9905;52.126;5.596;2023-04-06T09:29:40;8.90;99.90
19522;DHT22;9905;52.126;5.596;2023-04-06T09:32:08;9.00;99.90
19522;DHT22;9905;52.126;5.596;2023-04-06T09:34:37;9.00;99.90
19522;DHT22;9905;52.126;5.596;2023-04-06T09:37:12;9.00;99.90
19522;DHT22;9905;52.126;5.596;2023-04-06T09:39:39;9.00;99.90
19522;DHT22;9905;52.126;5.596;2023-04-06T09:42:08;9.10;99.90
19522;DHT22;9905;52.126;5.596;2023-04-06T09:44:34;9.20;99.90
19522;DHT22;9905;52.126;5.596;2023-04-06T09:47:04;9.30;99.90
19522;DHT22;9905;52.126;5.596;2023-04-06T09:49:33;9.40;99.90
19522;DHT22;9905;52.126;5.596;2023-04-06T09:52:03;9.50;99.90
19522;DHT22;9905;52.126;5.596;2023-04-06T09:54:31;9.50;99.90
19522;DHT22;9905;52.126;5.596;2023-04-06T09:57:01;9.50;99.90
19522;DHT22;9905;52.126;5.596;2023-04-06T09:59:39;9.60;99.90
19522;DHT22;9905;52.126;5.596;2023-04-06T10:02:15;9.50;99.90
19522;DHT22;9905;52.126;5.596;2023-04-06T10:04:52;9.50;99.90
19522;DHT22;9905;52.126;5.596;2023-04-06T10:07:20;9.50;99.90
19522;DHT22;9905;52.126;5.596;2023-04-06T10:09:47;9.50;99.90
19522;DHT22;9905;52.126;5.596;2023-04-06T10:12:16;9.60;99.90
19522;DHT22;9905;52.126;5.596;2023-04-06T10:14:44;9.70;99.90
19522;DHT22;9905;52.126;5.596;2023-04-06T10:17:11;9.80;99.90
19522;DHT22;9905;52.126;5.596;2023-04-06T10:19:44;10.00;99.90
19522;DHT22;9905;52.126;5.596;2023-04-06T10:22:18;10.00;99.90
19522;DHT22;9905;52.126;5.596;2023-04-06T10:24:47;10.10;99.90
19522;DHT22;9905;52.126;5.596;2023-04-06T10:27:14;10.20;99.90
19522;DHT22;9905;52.126;5.596;2023-04-06T10:29:44;10.30;99.90
19522;DHT22;9905;52.126;5.596;2023-04-06T10:32:12;10.40;99.90
19522;DHT22;9905;52.126;5.596;2023-04-06T10:34:38;10.50;99.90
19522;DHT22;9905;52.126;5.596;2023-04-06T10:37:13;10.50;99.90
19522;DHT22;9905;52.126;5.596;2023-04-06T10:39:47;10.40;99.90
19522;DHT22;9905;52.126;5.596;2023-04-06T10:42:14;10.30;99.90
19522;DHT22;9905;52.126;5.596;2023-04-06T10:44:43;10.30;99.90
19522;DHT22;9905;52.126;5.596;2023-04-06T10:47:17;10.50;99.90
19522;DHT22;9905;52.126;5.596;2023-04-06T10:49:44;10.60;99.90
19522;DHT22;9905;52.126;5.596;2023-04-06T10:52:11;10.50;99.90
19522;DHT22;9905;52.126;5.596;2023-04-06T10:54:41;10.50;99.90
19522;DHT22;9905;52.126;5.596;2023-04-06T10:57:09;10.40;99.90
19522;DHT22;9905;52.126;5.596;2023-04-06T10:59:35;10.50;99.90
19522;DHT22;9905;52.126;5.596;2023-04-06T11:02:02;10.60;99.90
19522;DHT22;9905;52.126;5.596;2023-04-06T11:04:30;10.70;99.90
19522;DHT22;9905;52.126;5.596;2023-04-06T11:06:57;10.70;99.90
19522;DHT22;9905;52.126;5.596;2023-04-06T11:09:24;10.70;99.90
19522;DHT22;9905;52.126;5.596;2023-04-06T11:11:52;10.60;99.90
19522;DHT22;9905;52.126;5.596;2023-04-06T11:14:19;10.60;99.90
19522;DHT22;9905;52.126;5.596;2023-04-06T11:16:47;10.70;99.90
19522;DHT22;9905;52.126;5.596;2023-04-06T11:19:14;10.60;99.90
19522;DHT22;9905;52.126;5.596;2023-04-06T11:21:43;10.50;99.90
19522;DHT22;9905;52.126;5.596;2023-04-06T11:24:14;10.40;99.90
19522;DHT22;9905;52.126;5.596;2023-04-06T11:26:43;10.40;99.90
19522;DHT22;9905;52.126;5.596;2023-04-06T11:29:10;10.00;99.90
19522;DHT22;9905;52.126;5.596;2023-04-06T11:31:39;10.00;99.90
19522;DHT22;9905;52.126;5.596;2023-04-06T11:34:10;9.80;99.90
19522;DHT22;9905;52.126;5.596;2023-04-06T11:36:41;9.70;99.90
19522;DHT22;9905;52.126;5.596;2023-04-06T11:39:08;9.60;99.90
19522;DHT22;9905;52.126;5.596;2023-04-06T11:41:35;9.60;99.90
19522;DHT22;9905;52.126;5.596;2023-04-06T11:44:03;9.60;99.90
19522;DHT22;9905;52.126;5.596;2023-04-06T11:46:30;9.50;99.90
19522;DHT22;9905;52.126;5.596;2023-04-06T11:48:58;9.50;99.90
19522;DHT22;9905;52.126;5.596;2023-04-06T11:51:26;9.40;99.90
19522;DHT22;9905;52.126;5.596;2023-04-06T11:53:54;9.40;99.90
19522;DHT22;9905;52.126;5.596;2023-04-06T11:56:26;9.40;99.90
19522;DHT22;9905;52.126;5.596;2023-04-06T11:58:54;9.30;99.90
19522;DHT22;9905;52.126;5.596;2023-04-06T12:01:22;9.40;99.90
19522;DHT22;9905;52.126;5.596;2023-04-06T12:03:49;9.30;99.90
19522;DHT22;9905;52.126;5.596;2023-04-06T12:06:16;9.20;99.90
19522;DHT22;9905;52.126;5.596;2023-04-06T12:08:43;9.10;99.90
19522;DHT22;9905;52.126;5.596;2023-04-06T12:11:12;9.10;99.90
19522;DHT22;9905;52.126;5.596;2023-04-06T12:13:39;9.00;99.90
19522;DHT22;9905;52.126;5.596;2023-04-06T12:16:06;8.90;99.90
19522;DHT22;9905;52.126;5.596;2023-04-06T12:18:32;8.90;99.90
19522;DHT22;9905;52.126;5.596;2023-04-06T12:20:59;9.00;99.90
19522;DHT22;9905;52.126;5.596;2023-04-06T12:23:26;9.00;99.90
19522;DHT22;9905;52.126;5.596;2023-04-06T12:25:52;9.00;99.90
19522;DHT22;9905;52.126;5.596;2023-04-06T12:28:21;9.00;99.90
19522;DHT22;9905;52.126;5.596;2023-04-06T12:30:52;9.00;99.90
19522;DHT22;9905;52.126;5.596;2023-04-06T12:33:19;9.10;99.90
19522;DHT22;9905;52.126;5.596;2023-04-06T12:35:46;9.10;99.90
19522;DHT22;9905;52.126;5.596;2023-04-06T12:38:12;9.00;99.90
19522;DHT22;9905;52.126;5.596;2023-04-06T12:40:39;9.00;99.90
19522;DHT22;9905;52.126;5.596;2023-04-06T12:43:06;9.00;99.90
19522;DHT22;9905;52.126;5.596;2023-04-06T12:45:35;9.00;99.90
19522;DHT22;9905;52.126;5.596;2023-04-06T12:48:02;8.90;99.90
19522;DHT22;9905;52.126;5.596;2023-04-06T12:50:28;8.90;99.90
19522;DHT22;9905;52.126;5.596;2023-04-06T12:52:55;8.90;99.90
19522;DHT22;9905;52.126;5.596;2023-04-06T12:55:22;8.90;99.90
19522;DHT22;9905;52.126;5.596;2023-04-06T12:57:49;8.90;99.90
19522;DHT22;9905;52.126;5.596;2023-04-06T13:00:16;8.90;99.90
19522;DHT22;9905;52.126;5.596;2023-04-06T13:02:45;8.90;99.90
19522;DHT22;9905;52.126;5.596;2023-04-06T13:05:13;8.90;99.90
19522;DHT22;9905;52.126;5.596;2023-04-06T13:07:44;8.90;99.90
19522;DHT22;9905;52.126;5.596;2023-04-06T13:10:11;8.90;99.90
19522;DHT22;9905;52.126;5.596;2023-04-06T13:12:37;8.90;99.90
19522;DHT22;9905;52.126;5.596;2023-04-06T13:15:05;8.80;99.90
19522;DHT22;9905;52.126;5.596;2023-04-06T13:17:32;8.80;99.90
19522;DHT22;9905;52.126;5.596;2023-04-06T13:20:00;8.80;99.90
19522;DHT22;9905;52.126;5.596;2023-04-06T13:22:27;8.80;99.90
19522;DHT22;9905;52.126;5.596;2023-04-06T13:24:54;8.80;99.90
19522;DHT22;9905;52.126;5.596;2023-04-06T13:27:21;8.70;99.90
19522;DHT22;9905;52.126;5.596;2023-04-06T13:29:47;8.80;99.90
19522;DHT22;9905;52.126;5.596;2023-04-06T13:32:14;8.80;99.90
19522;DHT22;9905;52.126;5.596;2023-04-06T13:34:41;8.80;99.90
19522;DHT22;9905;52.126;5.596;2023-04-06T13:37:11;8.80;99.90
19522;DHT22;9905;52.126;5.596;2023-04-06T13:39:38;8.80;99.90
19522;DHT22;9905;52.126;5.596;2023-04-06T13:42:05;8.80;99.90
19522;DHT22;9905;52.126;5.596;2023-04-06T13:44:32;8.70;99.90
19522;DHT22;9905;52.126;5.596;2023-04-06T13:46:59;8.70;99.90
19522;DHT22;9905;52.126;5.596;2023-04-06T13:49:25;8.80;99.90
19522;DHT22;9905;52.126;5.596;2023-04-06T13:51:53;8.80;99.90
19522;DHT22;9905;52.126;5.596;2023-04-06T13:54:21;8.80;99.90
19522;DHT22;9905;52.126;5.596;2023-04-06T13:56:47;8.80;99.90
19522;DHT22;9905;52.126;5.596;2023-04-06T13:59:14;8.80;99.90
19522;DHT22;9905;52.126;5.596;2023-04-06T14:01:41;8.80;99.90
19522;DHT22;9905;52.126;5.596;2023-04-06T14:04:08;8.80;99.90
19522;DHT22;9905;52.126;5.596;2023-04-06T14:06:36;8.70;99.90
19522;DHT22;9905;52.126;5.596;2023-04-06T14:09:03;8.60;99.90
19522;DHT22;9905;52.126;5.596;2023-04-06T14:11:31;8.60;99.90
19522;DHT22;9905;52.126;5.596;2023-04-06T14:13:58;8.60;99.90
19522;DHT22;9905;52.126;5.596;2023-04-06T14:16:25;8.60;99.90
19522;DHT22;9905;52.126;5.596;2023-04-06T14:18:52;8.50;99.90
19522;DHT22;9905;52.126;5.596;2023-04-06T14:21:19;8.50;99.90
19522;DHT22;9905;52.126;5.596;2023-04-06T14:23:45;8.50;99.90
19522;DHT22;9905;52.126;5.596;2023-04-06T14:26:12;8.50;99.90
19522;DHT22;9905;52.126;5.596;2023-04-06T14:28:41;8.60;99.90
19522;DHT22;9905;52.126;5.596;2023-04-06T14:31:12;8.50;99.90
19522;DHT22;9905;52.126;5.596;2023-04-06T14:33:41;8.50;99.90
19522;DHT22;9905;52.126;5.596;2023-04-06T14:36:08;8.50;99.90
19522;DHT22;9905;52.126;5.596;2023-04-06T14:38:35;8.50;99.90
19522;DHT22;9905;52.126;5.596;2023-04-06T14:41:02;8.50;99.90
19522;DHT22;9905;52.126;5.596;2023-04-06T14:43:29;8.40;99.90
19522;DHT22;9905;52.126;5.596;2023-04-06T14:46:01;8.40;99.90
19522;DHT22;9905;52.126;5.596;2023-04-06T14:48:27;8.40;99.90
19522;DHT22;9905;52.126;5.596;2023-04-06T14:50:55;8.40;99.90
19522;DHT22;9905;52.126;5.596;2023-04-06T14:53:22;8.40;99.90
19522;DHT22;9905;52.126;5.596;2023-04-06T14:55:49;8.40;99.90
19522;DHT22;9905;52.126;5.596;2023-04-06T14:58:17;8.40;99.90
19522;DHT22;9905;52.126;5.596;2023-04-06T15:00:43;8.40;99.90
19522;DHT22;9905;52.126;5.596;2023-04-06T15:03:12;8.40;99.90
19522;DHT22;9905;52.126;5.596;2023-04-06T15:05:39;8.40;99.90
19522;DHT22;9905;52.126;5.596;2023-04-06T15:08:06;8.40;99.90
19522;DHT22;9905;52.126;5.596;2023-04-06T15:10:35;8.30;99.90
19522;DHT22;9905;52.126;5.596;2023-04-06T15:13:02;8.30;99.90
19522;DHT22;9905;52.126;5.596;2023-04-06T15:15:29;8.30;99.90
19522;DHT22;9905;52.126;5.596;2023-04-06T15:17:55;8.30;99.90
19522;DHT22;9905;52.126;5.596;2023-04-06T15:20:23;8.30;99.90
19522;DHT22;9905;52.126;5.596;2023-04-06T15:22:50;8.30;99.90
19522;DHT22;9905;52.126;5.596;2023-04-06T15:25:17;8.20;99.90
19522;DHT22;9905;52.126;5.596;2023-04-06T15:27:44;8.20;99.90
19522;DHT22;9905;52.126;5.596;2023-04-06T15:30:11;8.20;99.90
19522;DHT22;9905;52.126;5.596;2023-04-06T15:32:37;8.20;99.90
19522;DHT22;9905;52.126;5.596;2023-04-06T15:35:09;8.20;99.90
19522;DHT22;9905;52.126;5.596;2023-04-06T15:37:38;8.20;99.90
19522;DHT22;9905;52.126;5.596;2023-04-06T15:40:06;8.20;99.90
19522;DHT22;9905;52.126;5.596;2023-04-06T15:42:33;8.20;99.90
19522;DHT22;9905;52.126;5.596;2023-04-06T15:44:59;8.30;99.90
19522;DHT22;9905;52.126;5.596;2023-04-06T15:47:26;8.20;99.90
19522;DHT22;9905;52.126;5.596;2023-04-06T15:49:53;8.30;99.90
19522;DHT22;9905;52.126;5.596;2023-04-06T15:52:20;8.30;99.90
19522;DHT22;9905;52.126;5.596;2023-04-06T15:54:49;8.20;99.90
19522;DHT22;9905;52.126;5.596;2023-04-06T15:57:16;8.20;99.90
19522;DHT22;9905;52.126;5.596;2023-04-06T15:59:42;8.20;99.90